Time;durP1;ratioP1;P1;durP2;ratioP2;P2;SDS_P1;SDS_P2;PMS_P1;PMS_P2;Temp;Humidity;BMP_temperature;BMP_pressure;BME280_temperature;BME280_humidity;BME280_pressure;Samples;Min_cycle;Max_cycle;Signal;HPM_P1;HPM_P2
2023/04/16 00:01:07;;;;;;;5.30;1.40;;;;;;;;;;5007461;28;92752;-79
2023/04/16 00:03:34;;;;;;;7.10;1.10;;;;;;;;;;5010610;28;95192;-84
2023/04/16 00:06:01;;;;;;;28.10;2.58;;;;;;;;;;5016136;28;92134;-92
2023/04/16 00:08:27;;;;;;;33.10;2.00;;;;;;;;;;4997704;28;95333;-90
2023/04/16 00:10:54;;;;;;;24.88;1.83;;;;;;;;;;5008257;28;99968;-91
2023/04/16 00:13:21;;;;;;;10.98;1.40;;;;;;;;;;5031304;28;92571;-90
2023/04/16 00:15:48;;;;;;;8.82;1.50;;;;;;;;;;5016255;28;92703;-88
2023/04/16 00:18:14;;;;;;;16.50;1.67;;;;;;;;;;5018480;28;92163;-88
2023/04/16 00:20:41;;;;;;;6.57;1.20;;;;;;;;;;5018828;28;95390;-88
2023/04/16 00:23:07;;;;;;;4.95;1.00;;;;;;;;;;5016450;28;95611;-86
2023/04/16 00:25:34;;;;;;;7.55;1.38;;;;;;;;;;5010495;28;92428;-87
2023/04/16 00:28:00;;;;;;;6.38;1.10;;;;;;;;;;5006496;28;94751;-87
2023/04/16 00:30:27;;;;;;;9.90;1.10;;;;;;;;;;5016265;28;93358;-90
2023/04/16 00:32:53;;;;;;;8.45;1.30;;;;;;;;;;5015094;28;92240;-88
2023/04/16 00:35:20;;;;;;;5.63;1.08;;;;;;;;;;4999872;28;94758;-88
2023/04/16 00:37:46;;;;;;;4.93;1.00;;;;;;;;;;5015409;28;92173;-88
2023/04/16 00:40:13;;;;;;;6.38;1.15;;;;;;;;;;5014859;28;95130;-88
2023/04/16 00:42:40;;;;;;;6.63;1.30;;;;;;;;;;5012250;28;93001;-89
2023/04/16 00:45:07;;;;;;;5.45;1.13;;;;;;;;;;5011103;28;91425;-89
2023/04/16 00:47:33;;;;;;;4.22;1.02;;;;;;;;;;5008692;28;92279;-89
2023/04/16 00:50:01;;;;;;;4.75;1.10;;;;;;;;;;5012893;28;94361;-89
2023/04/16 00:52:28;;;;;;;4.97;1.00;;;;;;;;;;4990633;28;94435;-88
2023/04/16 00:54:55;;;;;;;3.42;1.00;;;;;;;;;;5013753;28;97979;-89
2023/04/16 00:57:22;;;;;;;3.00;0.90;;;;;;;;;;5031255;28;92435;-91
2023/04/16 00:59:49;;;;;;;;;;;;;;;;;;5020701;28;92682;-90
2023/04/16 01:02:16;;;;;;;4.45;1.08;;;;;;;;;;5015875;28;110642;-89
2023/04/16 01:04:43;;;;;;;3.50;1.05;;;;;;;;;;5009511;28;92579;-88
2023/04/16 01:07:10;;;;;;;3.55;1.00;;;;;;;;;;5011889;28;92517;-87
2023/04/16 01:09:36;;;;;;;3.10;0.90;;;;;;;;;;5028223;28;94212;-89
2023/04/16 01:12:03;;;;;;;4.32;1.08;;;;;;;;;;5005452;28;92616;-88
2023/04/16 01:14:34;;;;;;;5.30;1.10;;;;;;;;;;4993126;28;98849;-89
2023/04/16 01:17:02;;;;;;;5.00;1.20;;;;;;;;;;5013447;28;97814;-88
2023/04/16 01:19:35;;;;;;;;;;;;;;;;;;5000570;28;97756;-89
2023/04/16 01:22:02;;;;;;;3.50;0.95;;;;;;;;;;5015152;28;98203;-88
2023/04/16 01:24:28;;;;;;;4.03;1.05;;;;;;;;;;5015870;28;92570;-88
2023/04/16 01:26:58;;;;;;;4.25;1.40;;;;;;;;;;4996344;28;95018;-88
2023/04/16 01:29:25;;;;;;;3.30;1.10;;;;;;;;;;5013324;28;95632;-88
2023/04/16 01:31:55;;;;;;;3.88;1.20;;;;;;;;;;5016847;28;92377;-88
2023/04/16 01:34:25;;;;;;;5.07;1.33;;;;;;;;;;5004167;28;95203;-87
2023/04/16 01:36:51;;;;;;;5.70;1.42;;;;;;;;;;5011834;28;95575;-89
2023/04/16 01:39:18;;;;;;;5.15;1.40;;;;;;;;;;5022990;28;92600;-87
2023/04/16 01:41:45;;;;;;;3.80;0.98;;;;;;;;;;5008326;28;98141;-88
2023/04/16 01:44:11;;;;;;;4.38;1.00;;;;;;;;;;5011183;28;92616;-88
2023/04/16 01:46:39;;;;;;;4.75;1.15;;;;;;;;;;5003513;28;94502;-88
2023/04/16 01:49:06;;;;;;;2.65;1.10;;;;;;;;;;5019637;28;95580;-88
2023/04/16 01:51:33;;;;;;;3.75;1.10;;;;;;;;;;5003063;28;92344;-87
2023/04/16 01:53:59;;;;;;;6.82;1.40;;;;;;;;;;5019888;28;94915;-87
2023/04/16 01:56:26;;;;;;;6.78;1.40;;;;;;;;;;5015312;28;94738;-87
2023/04/16 01:58:53;;;;;;;6.47;1.40;;;;;;;;;;5015941;28;91667;-87
2023/04/16 02:01:20;;;;;;;7.15;1.40;;;;;;;;;;5026378;28;93971;-87
2023/04/16 02:03:47;;;;;;;5.35;1.40;;;;;;;;;;5010193;28;92162;-88
2023/04/16 02:06:14;;;;;;;7.43;1.50;;;;;;;;;;5002339;28;95247;-88
2023/04/16 02:08:41;;;;;;;5.35;1.45;;;;;;;;;;5015296;28;95332;-87
2023/04/16 02:11:07;;;;;;;4.90;1.38;;;;;;;;;;5016755;28;93042;-87
2023/04/16 02:13:34;;;;;;;4.55;1.30;;;;;;;;;;4997031;28;94497;-87
2023/04/16 02:16:01;;;;;;;3.50;1.20;;;;;;;;;;5019868;28;94032;-87
2023/04/16 02:18:47;;;;;;;5.88;1.45;;;;;;;;;;5023039;28;92399;-94
2023/04/16 02:21:15;;;;;;;4.80;1.30;;;;;;;;;;5007699;28;93744;-92
2023/04/16 02:23:46;;;;;;;5.85;1.40;;;;;;;;;;5028316;28;92214;-91
2023/04/16 02:26:13;;;;;;;6.00;1.35;;;;;;;;;;5033066;28;94224;-92
2023/04/16 02:28:40;;;;;;;6.60;1.45;;;;;;;;;;5017672;28;94176;-91
2023/04/16 02:31:09;;;;;;;6.85;1.45;;;;;;;;;;5006571;28;94193;-92
2023/04/16 02:33:41;;;;;;;6.32;1.80;;;;;;;;;;5029185;27;97328;-92
2023/04/16 02:36:10;;;;;;;5.63;1.50;;;;;;;;;;5013771;28;94986;-91
2023/04/16 02:38:36;;;;;;;7.28;1.83;;;;;;;;;;5022195;28;91992;-92
2023/04/16 02:41:03;;;;;;;6.20;1.73;;;;;;;;;;5007440;28;94583;-92
2023/04/16 02:43:31;;;;;;;5.43;1.65;;;;;;;;;;5020147;28;93169;-92
2023/04/16 02:45:58;;;;;;;9.70;2.05;;;;;;;;;;5033111;28;95163;-87
2023/04/16 02:48:25;;;;;;;10.40;1.80;;;;;;;;;;5033845;28;91306;-88
2023/04/16 02:50:51;;;;;;;9.27;1.98;;;;;;;;;;5033465;28;91843;-87
2023/04/16 02:53:18;;;;;;;9.50;1.70;;;;;;;;;;5033684;27;93923;-91
2023/04/16 02:55:51;;;;;;;8.45;2.30;;;;;;;;;;5022351;28;97443;-89
2023/04/16 02:58:19;;;;;;;7.25;1.73;;;;;;;;;;5014988;28;91864;-92
2023/04/16 03:00:45;;;;;;;7.25;1.77;;;;;;;;;;5023340;28;94543;-92
2023/04/16 03:03:12;;;;;;;4.18;1.45;;;;;;;;;;5018069;28;93177;-87
2023/04/16 03:05:39;;;;;;;5.38;1.60;;;;;;;;;;5016966;28;92638;-87
2023/04/16 03:08:06;;;;;;;6.53;1.65;;;;;;;;;;5018878;28;95194;-88
2023/04/16 03:10:34;;;;;;;5.43;1.60;;;;;;;;;;4999170;28;92681;-89
2023/04/16 03:13:00;;;;;;;;;;;;;;;;;;5003520;28;95458;-90
2023/04/16 03:15:27;;;;;;;6.78;1.50;;;;;;;;;;5012471;28;94710;-91
2023/04/16 03:17:54;;;;;;;5.57;1.50;;;;;;;;;;5017928;28;92430;-91
2023/04/16 03:20:21;;;;;;;8.13;2.13;;;;;;;;;;5011776;28;95026;-91
2023/04/16 03:22:48;;;;;;;4.97;1.65;;;;;;;;;;5015924;28;95503;-90
2023/04/16 03:25:14;;;;;;;7.78;2.22;;;;;;;;;;5016769;28;92329;-90
2023/04/16 03:27:41;;;;;;;6.97;1.77;;;;;;;;;;5001157;28;94731;-91
2023/04/16 03:30:10;;;;;;;6.88;2.20;;;;;;;;;;5027435;28;92542;-90
2023/04/16 03:32:37;;;;;;;5.95;1.75;;;;;;;;;;5001796;28;93138;-91
2023/04/16 03:35:05;;;;;;;6.25;1.85;;;;;;;;;;4998455;28;93824;-90
2023/04/16 03:37:31;;;;;;;;;;;;;;;;;;5007522;28;91552;-90
2023/04/16 03:39:58;;;;;;;6.03;1.75;;;;;;;;;;5001505;28;92353;-93
2023/04/16 03:42:24;;;;;;;8.52;2.00;;;;;;;;;;5015706;28;95793;-91
2023/04/16 03:44:52;;;;;;;9.57;2.67;;;;;;;;;;5015477;28;94841;-89
2023/04/16 03:47:20;;;;;;;6.35;2.00;;;;;;;;;;5018147;28;96949;-91
2023/04/16 03:49:48;;;;;;;7.55;1.85;;;;;;;;;;5020822;28;95557;-87
2023/04/16 03:52:14;;;;;;;11.00;2.30;;;;;;;;;;5016316;28;92282;-91
2023/04/16 03:54:41;;;;;;;11.23;1.90;;;;;;;;;;5016981;28;94621;-91
2023/04/16 03:57:29;;;;;;;8.68;2.10;;;;;;;;;;5016950;28;92469;-87
2023/04/16 04:00:01;;;;;;;8.20;2.08;;;;;;;;;;5016577;28;95149;-90
2023/04/16 04:02:39;;;;;;;7.82;1.90;;;;;;;;;;5016358;28;98611;-89
2023/04/16 04:05:12;;;;;;;6.65;2.00;;;;;;;;;;4995438;28;92930;-88
2023/04/16 04:07:40;;;;;;;7.18;1.83;;;;;;;;;;5010629;28;94855;-89
2023/04/16 04:10:07;;;;;;;5.80;1.98;;;;;;;;;;5014401;28;97777;-89
2023/04/16 04:12:37;;;;;;;8.88;2.13;;;;;;;;;;5001803;28;92568;-89
2023/04/16 04:15:03;;;;;;;6.93;1.88;;;;;;;;;;5027517;28;95422;-88
2023/04/16 04:17:30;;;;;;;7.07;2.10;;;;;;;;;;5001578;28;92142;-88
2023/04/16 04:19:56;;;;;;;6.07;2.13;;;;;;;;;;5009349;28;94434;-91
2023/04/16 04:22:29;;;;;;;9.52;2.40;;;;;;;;;;4999317;28;95246;-93
2023/04/16 04:24:56;;;;;;;8.32;2.42;;;;;;;;;;5014761;28;92283;-93
2023/04/16 04:27:26;;;;;;;10.27;2.30;;;;;;;;;;5001940;28;95669;-92
2023/04/16 04:29:52;;;;;;;6.40;2.00;;;;;;;;;;4999724;28;95844;-90
2023/04/16 04:32:20;;;;;;;7.65;2.40;;;;;;;;;;5015216;28;92181;-89
2023/04/16 04:34:47;;;;;;;7.50;2.30;;;;;;;;;;5019011;28;95017;-90
2023/04/16 04:37:14;;;;;;;5.72;2.00;;;;;;;;;;4999941;28;93624;-90
2023/04/16 04:39:42;;;;;;;7.32;2.40;;;;;;;;;;5022025;28;94217;-91
2023/04/16 04:42:10;;;;;;;8.52;2.58;;;;;;;;;;5013148;28;94533;-90
2023/04/16 04:44:37;;;;;;;6.38;2.00;;;;;;;;;;5014554;28;93472;-91
2023/04/16 04:47:04;;;;;;;8.82;2.40;;;;;;;;;;5031037;28;92087;-96
2023/04/16 04:49:31;;;;;;;6.47;1.85;;;;;;;;;;5032963;28;95167;-96
2023/04/16 04:51:58;;;;;;;6.50;2.20;;;;;;;;;;5033536;28;91739;-96
2023/04/16 04:54:25;;;;;;;7.20;2.15;;;;;;;;;;5033604;28;93901;-93
2023/04/16 04:56:52;;;;;;;5.78;1.80;;;;;;;;;;5029109;28;91899;-91
2023/04/16 04:59:19;;;;;;;6.93;1.95;;;;;;;;;;5025266;28;94524;-95
2023/04/16 05:01:46;;;;;;;6.10;2.10;;;;;;;;;;5024208;28;94384;-95
2023/04/16 05:04:13;;;;;;;7.97;2.40;;;;;;;;;;5023212;28;92344;-95
2023/04/16 05:06:41;;;;;;;7.35;2.00;;;;;;;;;;5019861;28;92829;-96
2023/04/16 05:09:10;;;;;;;7.10;2.00;;;;;;;;;;5019278;28;92718;-96
2023/04/16 05:11:38;;;;;;;6.97;2.20;;;;;;;;;;5025999;27;92397;-94
2023/04/16 05:14:04;;;;;;;7.78;2.25;;;;;;;;;;5012862;28;92943;-91
2023/04/16 05:16:31;;;;;;;6.38;1.92;;;;;;;;;;5021146;28;94542;-93
2023/04/16 05:18:58;;;;;;;8.90;2.80;;;;;;;;;;5017669;28;92061;-95
2023/04/16 05:21:25;;;;;;;6.65;2.10;;;;;;;;;;5016879;28;96040;-94
2023/04/16 05:23:52;;;;;;;6.90;2.20;;;;;;;;;;5016767;28;94654;-93
2023/04/16 05:26:19;;;;;;;6.60;2.08;;;;;;;;;;5016526;28;94780;-89
2023/04/16 05:28:45;;;;;;;8.55;2.38;;;;;;;;;;5011658;28;92754;-89
2023/04/16 05:31:12;;;;;;;6.35;1.95;;;;;;;;;;4996715;28;92199;-90
2023/04/16 05:33:38;;;;;;;7.68;2.30;;;;;;;;;;4999594;28;95356;-90
2023/04/16 05:36:05;;;;;;;6.28;2.35;;;;;;;;;;5014876;28;94961;-89
2023/04/16 05:38:32;;;;;;;8.73;2.70;;;;;;;;;;5023651;22;93144;-86
2023/04/16 05:40:58;;;;;;;10.60;3.08;;;;;;;;;;4967524;28;92244;-86
2023/04/16 05:43:24;;;;;;;8.52;2.60;;;;;;;;;;4967640;28;93288;-86
2023/04/16 05:45:51;;;;;;;8.30;2.50;;;;;;;;;;4965570;28;93039;-85
2023/04/16 05:48:18;;;;;;;6.40;2.55;;;;;;;;;;4931068;28;98093;-85
2023/04/16 05:50:45;;;;;;;7.75;2.60;;;;;;;;;;4930106;28;92931;-86
2023/04/16 05:53:13;;;;;;;10.23;2.83;;;;;;;;;;4968998;28;92903;-86
2023/04/16 05:55:39;;;;;;;8.38;2.60;;;;;;;;;;4950691;28;96009;-86
2023/04/16 05:58:06;;;;;;;6.85;2.53;;;;;;;;;;4942194;28;93192;-87
2023/04/16 06:00:32;;;;;;;7.70;2.45;;;;;;;;;;4948437;28;92832;-85
2023/04/16 06:02:59;;;;;;;8.57;2.60;;;;;;;;;;4946617;28;92753;-84
2023/04/16 06:05:26;;;;;;;9.23;2.80;;;;;;;;;;4946599;28;93358;-86
2023/04/16 06:07:53;;;;;;;12.10;3.80;;;;;;;;;;4947551;28;93353;-86
2023/04/16 06:10:21;;;;;;;8.95;2.50;;;;;;;;;;4945386;28;92555;-85
2023/04/16 06:12:48;;;;;;;7.82;2.60;;;;;;;;;;4950197;28;94781;-86
2023/04/16 06:15:15;;;;;;;8.55;3.30;;;;;;;;;;4950355;28;94691;-86
2023/04/16 06:17:41;;;;;;;9.93;2.72;;;;;;;;;;4950956;28;92958;-87
2023/04/16 06:20:08;;;;;;;9.43;2.80;;;;;;;;;;4918923;28;93333;-87
2023/04/16 06:22:35;;;;;;;7.28;2.40;;;;;;;;;;4956990;28;93304;-86
2023/04/16 06:25:02;;;;;;;8.65;2.55;;;;;;;;;;4952441;28;92706;-87
2023/04/16 06:27:30;;;;;;;10.93;4.20;;;;;;;;;;4949557;28;93229;-86
2023/04/16 06:29:57;;;;;;;7.75;2.60;;;;;;;;;;4965841;28;91799;-87
2023/04/16 06:32:24;;;;;;;8.88;2.75;;;;;;;;;;4946106;28;93183;-86
2023/04/16 06:34:50;;;;;;;7.90;2.53;;;;;;;;;;4945654;28;93142;-86
2023/04/16 06:37:17;;;;;;;8.05;2.60;;;;;;;;;;4947352;28;95451;-88
2023/04/16 06:39:44;;;;;;;8.10;2.65;;;;;;;;;;4948331;28;95489;-86
2023/04/16 06:42:10;;;;;;;7.55;2.42;;;;;;;;;;4949993;28;93000;-86
2023/04/16 06:44:37;;;;;;;8.52;2.50;;;;;;;;;;4951891;28;92662;-86
2023/04/16 06:47:04;;;;;;;10.73;3.40;;;;;;;;;;4947915;28;94548;-84
2023/04/16 06:49:30;;;;;;;7.80;2.60;;;;;;;;;;4949971;28;92469;-86
2023/04/16 06:51:57;;;;;;;7.80;2.65;;;;;;;;;;4947708;28;92986;-85
2023/04/16 06:54:24;;;;;;;8.70;2.92;;;;;;;;;;4949346;28;92979;-85
2023/04/16 06:56:51;;;;;;;8.93;2.90;;;;;;;;;;4949205;28;93219;-84
2023/04/16 06:59:18;;;;;;;10.57;2.85;;;;;;;;;;4947845;28;92754;-85
2023/04/16 07:01:44;;;;;;;8.25;3.10;;;;;;;;;;4944768;28;98090;-85
2023/04/16 07:04:11;;;;;;;8.68;3.20;;;;;;;;;;4932079;28;92835;-83
2023/04/16 07:06:37;;;;;;;8.25;2.60;;;;;;;;;;4942836;28;92975;-84
2023/04/16 07:09:04;;;;;;;8.52;2.70;;;;;;;;;;4946798;28;93154;-84
2023/04/16 07:11:30;;;;;;;7.57;2.78;;;;;;;;;;4946888;28;95609;-85
2023/04/16 07:13:57;;;;;;;7.38;2.88;;;;;;;;;;4946394;28;96371;-84
2023/04/16 07:16:24;;;;;;;8.90;3.30;;;;;;;;;;4947125;28;92728;-85
2023/04/16 07:18:51;;;;;;;8.05;2.70;;;;;;;;;;4942046;28;92887;-84
2023/04/16 07:21:17;;;;;;;8.95;3.05;;;;;;;;;;4948415;28;93321;-85
2023/04/16 07:23:44;;;;;;;7.90;2.70;;;;;;;;;;4954789;28;93239;-85
2023/04/16 07:26:10;;;;;;;9.68;3.90;;;;;;;;;;4939234;28;95343;-85
2023/04/16 07:28:37;;;;;;;8.02;3.10;;;;;;;;;;4954736;28;93912;-84
2023/04/16 07:31:03;;;;;;;9.05;2.70;;;;;;;;;;4953936;28;92891;-86
2023/04/16 07:33:30;;;;;;;12.00;3.38;;;;;;;;;;4956727;28;92567;-85
2023/04/16 07:35:56;;;;;;;9.40;3.38;;;;;;;;;;4947258;28;92482;-86
2023/04/16 07:38:23;;;;;;;10.65;3.50;;;;;;;;;;4947497;28;92566;-85
2023/04/16 07:40:50;;;;;;;9.25;3.50;;;;;;;;;;4952390;28;93097;-86
2023/04/16 07:43:16;;;;;;;10.05;3.47;;;;;;;;;;4952856;28;93540;-86
2023/04/16 07:45:43;;;;;;;10.15;4.30;;;;;;;;;;4942297;28;93039;-85
2023/04/16 07:48:10;;;;;;;11.07;4.07;;;;;;;;;;4934289;28;93156;-83
2023/04/16 07:50:36;;;;;;;11.00;3.85;;;;;;;;;;4937701;28;95340;-82
2023/04/16 07:53:04;;;;;;;8.43;3.47;;;;;;;;;;4930902;28;92959;-86
2023/04/16 07:55:31;;;;;;;10.02;4.40;;;;;;;;;;4949157;28;92567;-86
2023/04/16 07:57:57;;;;;;;10.35;3.38;;;;;;;;;;4936225;28;92991;-87
2023/04/16 08:00:25;;;;;;;9.50;3.53;;;;;;;;;;4955171;28;93106;-88
2023/04/16 08:02:51;;;;;;;9.95;3.60;;;;;;;;;;4933443;28;92616;-85
2023/04/16 08:05:18;;;;;;;10.00;4.10;;;;;;;;;;4951270;28;93093;-85
2023/04/16 08:07:45;;;;;;;10.10;4.25;;;;;;;;;;4953764;28;92382;-86
2023/04/16 08:10:11;;;;;;;8.73;3.70;;;;;;;;;;4956341;28;92881;-86
2023/04/16 08:12:38;;;;;;;14.07;3.80;;;;;;;;;;4952449;28;92931;-85
2023/04/16 08:15:05;;;;;;;7.65;3.15;;;;;;;;;;4947796;28;95178;-85
2023/04/16 08:17:33;;;;;;;9.25;2.88;;;;;;;;;;4945461;28;95091;-83
2023/04/16 08:20:00;;;;;;;6.72;2.50;;;;;;;;;;4926419;28;96528;-83
2023/04/16 08:22:27;;;;;;;7.72;2.70;;;;;;;;;;4944007;28;92810;-82
2023/04/16 08:24:53;;;;;;;5.63;2.20;;;;;;;;;;4943786;28;93003;-82
2023/04/16 08:27:20;;;;;;;6.78;2.58;;;;;;;;;;4944946;28;93437;-82
2023/04/16 08:29:47;;;;;;;11.60;2.58;;;;;;;;;;4945599;28;92888;-83
2023/04/16 08:32:13;;;;;;;6.55;2.28;;;;;;;;;;4942488;28;94763;-85
2023/04/16 08:34:40;;;;;;;7.50;2.35;;;;;;;;;;4942426;28;92661;-84
2023/04/16 08:37:07;;;;;;;5.07;1.90;;;;;;;;;;4945790;28;93028;-83
2023/04/16 08:39:34;;;;;;;5.47;2.10;;;;;;;;;;4946548;28;96544;-84
2023/04/16 08:42:03;;;;;;;6.50;2.30;;;;;;;;;;4944210;28;92848;-85
2023/04/16 08:44:31;;;;;;;7.85;2.38;;;;;;;;;;4952434;28;98088;-84
2023/04/16 08:46:58;;;;;;;5.90;1.83;;;;;;;;;;4963135;28;92498;-85
2023/04/16 08:49:25;;;;;;;5.13;1.80;;;;;;;;;;4933429;28;92871;-85
2023/04/16 08:51:53;;;;;;;6.30;2.10;;;;;;;;;;4949252;28;93081;-83
2023/04/16 08:54:29;;;;;;;5.50;2.17;;;;;;;;;;4945437;28;92736;-82
2023/04/16 08:56:57;;;;;;;4.88;2.10;;;;;;;;;;4929689;28;94530;-81
2023/04/16 08:59:24;;;;;;;5.15;2.13;;;;;;;;;;4946109;28;92816;-81
2023/04/16 09:01:54;;;;;;;6.75;2.20;;;;;;;;;;4946213;28;93174;-82
2023/04/16 09:04:22;;;;;;;4.93;1.92;;;;;;;;;;4944586;28;96008;-82
2023/04/16 09:06:49;;;;;;;5.03;1.90;;;;;;;;;;4941221;28;94867;-82
2023/04/16 09:09:16;;;;;;;6.32;1.95;;;;;;;;;;4948546;28;93015;-83
2023/04/16 09:11:44;;;;;;;;;;;;;;;;;;4948183;28;92905;-82
2023/04/16 09:14:11;;;;;;;4.70;1.80;;;;;;;;;;4952766;28;118032;-85
2023/04/16 09:16:38;;;;;;;4.85;1.80;;;;;;;;;;4944928;28;92863;-81
2023/04/16 09:19:06;;;;;;;5.30;1.80;;;;;;;;;;4948814;28;93264;-83
2023/04/16 09:21:33;;;;;;;4.35;1.70;;;;;;;;;;4949323;28;92013;-82
2023/04/16 09:24:00;;;;;;;4.70;1.80;;;;;;;;;;4948861;28;92611;-81
2023/04/16 09:26:27;;;;;;;4.85;1.80;;;;;;;;;;4946941;28;93612;-83
2023/04/16 09:28:53;;;;;;;4.05;1.63;;;;;;;;;;4947037;28;96191;-86
2023/04/16 09:31:20;;;;;;;8.88;1.67;;;;;;;;;;4945787;28;96308;-84
2023/04/16 09:34:01;;;;;;;5.70;1.83;;;;;;;;;;4948642;28;93566;-84
2023/04/16 09:36:27;;;;;;;5.70;1.65;;;;;;;;;;4946160;28;92570;-84
2023/04/16 09:38:54;;;;;;;8.85;2.13;;;;;;;;;;4949575;28;93097;-83
2023/04/16 09:41:24;;;;;;;4.18;1.77;;;;;;;;;;4950077;28;93891;-85
2023/04/16 09:43:54;;;;;;;4.78;1.75;;;;;;;;;;4938082;28;93763;-83
2023/04/16 09:46:21;;;;;;;5.65;1.70;;;;;;;;;;4945667;28;93948;-84
2023/04/16 09:48:48;;;;;;;6.88;1.70;;;;;;;;;;4946631;28;92971;-85
2023/04/16 09:51:15;;;;;;;5.95;1.70;;;;;;;;;;4943472;28;93352;-84
2023/04/16 09:53:42;;;;;;;6.00;1.50;;;;;;;;;;4947916;28;95576;-85
2023/04/16 09:56:10;;;;;;;5.18;1.67;;;;;;;;;;4951740;28;93654;-83
2023/04/16 09:58:37;;;;;;;5.28;1.73;;;;;;;;;;4955703;28;94430;-85
2023/04/16 10:01:05;;;;;;;4.68;1.83;;;;;;;;;;4949281;28;94436;-83
2023/04/16 10:03:33;;;;;;;4.75;1.67;;;;;;;;;;4949217;28;92940;-85
2023/04/16 10:06:06;;;;;;;4.95;1.80;;;;;;;;;;4949670;28;93364;-83
2023/04/16 10:08:32;;;;;;;6.85;1.70;;;;;;;;;;4950395;28;92773;-83
2023/04/16 10:10:59;;;;;;;5.10;1.70;;;;;;;;;;4948067;28;93928;-83
2023/04/16 10:13:30;;;;;;;;;;;;;;;;;;4949059;28;93456;-84
2023/04/16 10:15:57;;;;;;;8.75;1.70;;;;;;;;;;4951276;28;99676;-83
2023/04/16 10:18:24;;;;;;;8.88;1.90;;;;;;;;;;4942253;28;95262;-83
2023/04/16 10:20:51;;;;;;;4.60;1.50;;;;;;;;;;4952041;28;94387;-83
2023/04/16 10:23:18;;;;;;;5.05;1.55;;;;;;;;;;4948281;28;92743;-84
2023/04/16 10:25:46;;;;;;;7.53;1.70;;;;;;;;;;4949809;28;93267;-84
2023/04/16 10:28:13;;;;;;;7.55;1.70;;;;;;;;;;4951971;28;92815;-84
2023/04/16 10:30:42;;;;;;;4.60;1.50;;;;;;;;;;4950917;28;94923;-84
2023/04/16 10:33:08;;;;;;;5.80;1.80;;;;;;;;;;4955768;28;94307;-84
2023/04/16 10:35:38;;;;;;;6.05;1.70;;;;;;;;;;4958589;28;91728;-84
2023/04/16 10:38:23;;;;;;;4.57;1.70;;;;;;;;;;4955364;28;93016;-84
2023/04/16 10:40:57;;;;;;;6.63;1.88;;;;;;;;;;4958860;28;97946;-83
2023/04/16 10:43:24;;;;;;;5.20;1.90;;;;;;;;;;4971085;28;95458;-83
2023/04/16 10:45:52;;;;;;;4.90;1.77;;;;;;;;;;4973272;28;93263;-85
2023/04/16 10:48:19;;;;;;;3.92;1.60;;;;;;;;;;4952245;28;93196;-86
2023/04/16 10:50:53;;;;;;;6.22;1.95;;;;;;;;;;4966788;28;92809;-84
2023/04/16 10:53:19;;;;;;;;;;;;;;;;;;4963485;28;92383;-85
2023/04/16 10:55:56;;;;;;;4.80;1.60;;;;;;;;;;4965230;28;92462;-85
2023/04/16 10:58:26;;;;;;;4.97;1.90;;;;;;;;;;4960654;28;92698;-84
2023/04/16 11:00:53;;;;;;;4.78;1.67;;;;;;;;;;4954777;28;91919;-83
2023/04/16 11:03:19;;;;;;;7.05;2.08;;;;;;;;;;4962029;28;92505;-82
2023/04/16 11:05:46;;;;;;;5.97;1.77;;;;;;;;;;4967665;28;92454;-83
2023/04/16 11:08:14;;;;;;;7.05;1.90;;;;;;;;;;4966835;28;94983;-84
2023/04/16 11:10:41;;;;;;;5.50;1.80;;;;;;;;;;4966070;28;94016;-83
2023/04/16 11:13:08;;;;;;;4.28;1.80;;;;;;;;;;4971753;28;92052;-84
2023/04/16 11:15:35;;;;;;;5.50;1.98;;;;;;;;;;4971077;28;95502;-84
2023/04/16 11:18:02;;;;;;;4.70;1.98;;;;;;;;;;4979053;28;91922;-83
2023/04/16 11:20:29;;;;;;;5.90;1.67;;;;;;;;;;4968887;28;93411;-84
2023/04/16 11:22:56;;;;;;;4.75;1.90;;;;;;;;;;4968460;28;92925;-83
2023/04/16 11:25:24;;;;;;;5.07;2.10;;;;;;;;;;4969225;28;92243;-84
2023/04/16 11:27:51;;;;;;;5.78;1.80;;;;;;;;;;4949712;28;92811;-83
2023/04/16 11:30:28;;;;;;;4.50;1.70;;;;;;;;;;4943108;28;93463;-84
2023/04/16 11:32:54;;;;;;;4.00;1.80;;;;;;;;;;4944711;28;95619;-83
2023/04/16 11:35:21;;;;;;;6.15;2.00;;;;;;;;;;4947868;28;92899;-84
2023/04/16 11:37:48;;;;;;;5.43;1.80;;;;;;;;;;4948415;28;92896;-84
2023/04/16 11:40:14;;;;;;;7.20;1.90;;;;;;;;;;4944223;28;93336;-85
2023/04/16 11:42:42;;;;;;;6.50;1.92;;;;;;;;;;4948547;28;92980;-84
2023/04/16 11:45:10;;;;;;;4.88;1.95;;;;;;;;;;4948796;28;94215;-84
2023/04/16 11:47:50;;;;;;;5.15;2.10;;;;;;;;;;4951187;28;93110;-83
2023/04/16 11:50:18;;;;;;;5.25;1.85;;;;;;;;;;4946866;28;93580;-84
2023/04/16 11:52:46;;;;;;;6.97;1.88;;;;;;;;;;4947137;28;93148;-83
2023/04/16 11:55:12;;;;;;;6.78;2.17;;;;;;;;;;4946827;28;93097;-84
2023/04/16 11:57:39;;;;;;;4.68;1.80;;;;;;;;;;4946451;28;95020;-84
2023/04/16 12:00:09;;;;;;;5.03;2.00;;;;;;;;;;4945714;28;94318;-84
2023/04/16 12:02:39;;;;;;;;;;;;;;;;;;4944519;28;92954;-84
2023/04/16 12:05:24;;;;;;;5.13;2.10;;;;;;;;;;4952985;28;92567;-83
2023/04/16 12:07:50;;;;;;;6.50;2.15;;;;;;;;;;4952066;28;93263;-85
2023/04/16 12:10:17;;;;;;;4.75;2.00;;;;;;;;;;4960765;28;92959;-85
2023/04/16 12:12:43;;;;;;;5.45;1.85;;;;;;;;;;4949807;28;93165;-84
2023/04/16 12:15:10;;;;;;;5.80;2.20;;;;;;;;;;4949301;28;92085;-84
2023/04/16 12:17:37;;;;;;;6.75;2.17;;;;;;;;;;4952123;28;92834;-86
2023/04/16 12:20:11;;;;;;;4.45;1.90;;;;;;;;;;4949668;28;94466;-85
2023/04/16 12:22:39;;;;;;;5.18;1.90;;;;;;;;;;4949132;28;94890;-85
2023/04/16 12:25:15;;;;;;;5.00;2.13;;;;;;;;;;4948850;28;94390;-85
2023/04/16 12:27:52;;;;;;;14.15;2.10;;;;;;;;;;4941227;28;93040;-84
2023/04/16 12:30:23;;;;;;;5.00;1.90;;;;;;;;;;4953479;28;92777;-84
2023/04/16 12:32:51;;;;;;;5.95;2.17;;;;;;;;;;4959278;28;92673;-84
2023/04/16 12:35:30;;;;;;;5.65;1.90;;;;;;;;;;4952819;28;92996;-84
2023/04/16 12:37:57;;;;;;;7.28;1.80;;;;;;;;;;4954199;28;94403;-84
2023/04/16 12:40:24;;;;;;;5.80;2.25;;;;;;;;;;4951367;28;94311;-85
2023/04/16 12:42:51;;;;;;;5.18;2.08;;;;;;;;;;4969395;28;92852;-84
2023/04/16 12:45:17;;;;;;;4.68;2.00;;;;;;;;;;4960604;28;92474;-84
2023/04/16 12:47:45;;;;;;;5.18;2.08;;;;;;;;;;4954241;28;96095;-84
2023/04/16 12:50:11;;;;;;;7.18;2.05;;;;;;;;;;4947331;28;93189;-83
2023/04/16 12:52:38;;;;;;;7.95;2.17;;;;;;;;;;4954223;28;95798;-82
2023/04/16 12:55:06;;;;;;;7.85;2.15;;;;;;;;;;4958781;28;92983;-86
2023/04/16 12:57:33;;;;;;;5.95;1.95;;;;;;;;;;4949904;28;92746;-84
2023/04/16 12:59:59;;;;;;;8.43;2.30;;;;;;;;;;4947710;28;96416;-85
2023/04/16 13:02:26;;;;;;;7.07;1.85;;;;;;;;;;4941760;28;93931;-85
2023/04/16 13:04:53;;;;;;;11.73;2.35;;;;;;;;;;4945989;28;92665;-84
2023/04/16 13:07:20;;;;;;;4.88;2.10;;;;;;;;;;4948527;28;93088;-84
2023/04/16 13:09:46;;;;;;;5.60;2.10;;;;;;;;;;4949204;28;93384;-84
2023/04/16 13:12:13;;;;;;;5.80;2.20;;;;;;;;;;4945172;28;95027;-84
2023/04/16 13:14:40;;;;;;;6.55;2.00;;;;;;;;;;4950943;28;93117;-84
2023/04/16 13:17:08;;;;;;;9.13;2.10;;;;;;;;;;4925295;28;95030;-85
2023/04/16 13:19:35;;;;;;;5.68;2.10;;;;;;;;;;4945542;28;94352;-83
2023/04/16 13:22:02;;;;;;;9.93;2.15;;;;;;;;;;4942754;28;92877;-83
2023/04/16 13:24:29;;;;;;;6.15;2.00;;;;;;;;;;4940175;28;93298;-83
2023/04/16 13:26:56;;;;;;;7.38;2.20;;;;;;;;;;4946191;28;93208;-82
2023/04/16 13:29:22;;;;;;;6.32;2.03;;;;;;;;;;4949025;28;92030;-81
2023/04/16 13:31:49;;;;;;;5.35;2.08;;;;;;;;;;4950354;28;92810;-83
2023/04/16 13:34:16;;;;;;;6.75;2.20;;;;;;;;;;4951205;28;93403;-82
2023/04/16 13:36:42;;;;;;;5.82;2.20;;;;;;;;;;4960038;28;94956;-81
2023/04/16 13:39:10;;;;;;;5.60;2.10;;;;;;;;;;4942570;28;95313;-83
2023/04/16 13:41:37;;;;;;;11.15;2.40;;;;;;;;;;4935485;28;94143;-82
2023/04/16 13:44:04;;;;;;;6.43;2.40;;;;;;;;;;4946475;28;93409;-83
2023/04/16 13:46:31;;;;;;;5.50;2.05;;;;;;;;;;4954898;28;97569;-86
2023/04/16 13:48:57;;;;;;;11.77;2.38;;;;;;;;;;4957513;28;92948;-89
2023/04/16 13:51:26;;;;;;;9.40;2.22;;;;;;;;;;4954833;28;92905;-83
2023/04/16 13:53:53;;;;;;;16.95;2.58;;;;;;;;;;4949485;28;94026;-83
2023/04/16 13:56:19;;;;;;;11.35;2.30;;;;;;;;;;4945080;28;92915;-88
2023/04/16 13:58:46;;;;;;;15.00;2.40;;;;;;;;;;4951219;28;94016;-87
2023/04/16 14:01:15;;;;;;;11.30;2.20;;;;;;;;;;4943782;28;95312;-88
2023/04/16 14:03:42;;;;;;;9.23;2.45;;;;;;;;;;4954660;28;95710;-88
2023/04/16 14:06:09;;;;;;;7.90;1.80;;;;;;;;;;4959399;28;93212;-88
2023/04/16 14:08:37;;;;;;;8.38;2.00;;;;;;;;;;4959327;28;92344;-88
2023/04/16 14:11:05;;;;;;;11.05;2.10;;;;;;;;;;4959024;28;92867;-86
2023/04/16 14:13:32;;;;;;;8.48;1.83;;;;;;;;;;4953239;28;92415;-87
2023/04/16 14:15:58;;;;;;;6.05;1.83;;;;;;;;;;4955744;28;93554;-87
2023/04/16 14:18:25;;;;;;;7.03;1.95;;;;;;;;;;4949926;28;96077;-86
2023/04/16 14:20:51;;;;;;;6.40;1.95;;;;;;;;;;4951455;28;94189;-88
2023/04/16 14:23:18;;;;;;;5.60;1.80;;;;;;;;;;4951008;28;92998;-87
2023/04/16 14:25:44;;;;;;;6.50;1.98;;;;;;;;;;4947532;28;95870;-87
2023/04/16 14:28:11;;;;;;;5.95;1.90;;;;;;;;;;4953157;28;93003;-91
2023/04/16 14:30:41;;;;;;;8.02;1.70;;;;;;;;;;4944422;28;94610;-90
2023/04/16 14:33:10;;;;;;;9.50;1.85;;;;;;;;;;4954696;28;93956;-91
2023/04/16 14:35:38;;;;;;;8.02;2.00;;;;;;;;;;4952896;28;93270;-89
2023/04/16 14:38:05;;;;;;;5.05;1.55;;;;;;;;;;4953982;28;95691;-88
2023/04/16 14:40:33;;;;;;;10.27;1.88;;;;;;;;;;4954365;28;94202;-92
2023/04/16 14:43:00;;;;;;;4.28;1.50;;;;;;;;;;4957040;28;92327;-90
2023/04/16 14:45:29;;;;;;;5.90;1.85;;;;;;;;;;4941842;28;92879;-88